Aviation Digital Data Service (ADDS)

Output produced by METARs form (1338 UTC 26 May 2015)
found at http://www.aviationweather.gov/adds/metars/
 
SEGU 261300Z 20005KT 9999 BKN026 BKN090 26/23 Q1011 NOSIG RMK A 2987
TAF SEGU 260910Z 2612/2712 20005KT 9999 SCT020 BKN090 
     FM261700 08005KT 9999 SCT026 SCT100 
     FM270000 22010KT 9999 SCT020 BKN090 
     TEMPO 2709/2712 22005KT TX32/2619Z TN24/2710Z
       
SEMT 261200Z 19003KT 9999 FEW020 BKN100 25/24 Q1011 RMK 2988
TAF SEMT 260920Z 2612/2712 12005KT 9999 BKN023 
     FM261800 27010KT 9999 SCT023 SCT100 
     FM270000 20006KT 9999 BKN023 
     FM270600 24004KT 9999 OVC023 TX30/2619Z TN24/2710Z